Time;durP1;ratioP1;P1;durP2;ratioP2;P2;SDS_P1;SDS_P2;PMS_P1;PMS_P2;Temp;Humidity;BMP_temperature;BMP_pressure;BME280_temperature;BME280_humidity;BME280_pressure;Samples;Min_cycle;Max_cycle;Signal;HPM_P1;HPM_P2
2023/12/27 00:01:03;;;;;;;5.05;1.60;;;22.60;38.40;;;;;;5000160;28;20061;-50
2023/12/27 00:03:30;;;;;;;5.35;2.17;;;22.60;38.40;;;;;;4998529;28;20050;-54
2023/12/27 00:05:57;;;;;;;6.95;2.33;;;22.60;38.30;;;;;;5003070;28;20073;-53
2023/12/27 00:08:24;;;;;;;7.75;2.13;;;22.60;38.30;;;;;;5004236;28;20423;-53
2023/12/27 00:10:51;;;;;;;4.72;2.00;;;22.60;38.20;;;;;;5004225;28;20518;-52
2023/12/27 00:13:18;;;;;;;4.50;1.65;;;22.60;38.20;;;;;;5003744;28;20065;-54
2023/12/27 00:15:47;;;;;;;5.90;1.95;;;22.60;38.20;;;;;;5005063;28;20053;-53
2023/12/27 00:18:16;;;;;;;5.60;1.90;;;22.60;38.20;;;;;;5001059;28;20058;-53
2023/12/27 00:20:43;;;;;;;6.78;2.00;;;22.60;38.10;;;;;;5001243;28;20061;-53
2023/12/27 00:30:08;;;;;;;4.68;2.20;;;22.60;37.90;;;;;;5002584;28;20045;-56
2023/12/27 00:32:37;;;;;;;6.18;1.92;;;22.50;37.90;;;;;;5002750;28;20049;-55
2023/12/27 00:35:04;;;;;;;7.60;2.08;;;22.50;37.90;;;;;;5005369;28;20563;-58
2023/12/27 00:37:32;;;;;;;5.22;1.92;;;22.50;38.00;;;;;;5006232;28;20071;-54
2023/12/27 00:39:59;;;;;;;5.10;2.15;;;22.50;38.00;;;;;;5003266;28;20531;-56
2023/12/27 00:42:26;;;;;;;4.95;2.00;;;22.40;38.00;;;;;;5000252;28;20061;-56
2023/12/27 00:44:53;;;;;;;5.38;2.05;;;22.40;38.00;;;;;;5004159;28;20053;-57
2023/12/27 00:47:20;;;;;;;4.85;1.88;;;22.40;38.00;;;;;;5004657;28;20512;-57
2023/12/27 00:49:49;;;;;;;5.65;2.03;;;22.40;38.00;;;;;;5002423;28;20500;-57
2023/12/27 00:52:16;;;;;;;5.45;2.10;;;22.30;37.90;;;;;;5000287;28;20415;-56
2023/12/27 00:54:43;;;;;;;4.97;2.30;;;22.30;37.90;;;;;;5004099;28;20616;-55
2023/12/27 00:57:11;;;;;;;6.97;2.00;;;22.30;37.90;;;;;;4997707;28;20060;-55
2023/12/27 00:59:38;;;;;;;4.60;2.10;;;22.30;37.90;;;;;;5000562;28;20054;-56
2023/12/27 01:02:06;;;;;;;5.43;2.20;;;22.30;37.90;;;;;;5002498;28;20050;-57
2023/12/27 01:04:34;;;;;;;5.78;2.00;;;22.20;37.90;;;;;;5000692;28;20061;-57
2023/12/27 01:07:02;;;;;;;5.72;1.95;;;22.20;37.90;;;;;;5000426;28;20518;-56
2023/12/27 01:09:29;;;;;;;4.95;2.00;;;22.20;37.90;;;;;;5001524;28;20065;-57
2023/12/27 01:11:56;;;;;;;8.07;2.47;;;22.20;38.00;;;;;;5002894;28;20100;-56
2023/12/27 01:14:23;;;;;;;4.93;1.88;;;22.20;38.00;;;;;;4996456;28;20538;-56
2023/12/27 01:16:51;;;;;;;4.88;1.90;;;22.20;38.10;;;;;;4999310;28;20065;-57
2023/12/27 01:19:18;;;;;;;2.67;1.60;;;22.20;38.20;;;;;;5009078;28;20046;-52
2023/12/27 01:21:45;;;;;;;5.07;2.10;;;22.20;38.30;;;;;;5005075;28;20060;-55
2023/12/27 01:24:13;;;;;;;5.05;1.85;;;22.20;38.30;;;;;;5002025;28;20074;-50
2023/12/27 01:26:41;;;;;;;3.50;1.60;;;22.30;38.40;;;;;;4995766;28;20054;-56
2023/12/27 01:29:08;;;;;;;3.45;1.65;;;22.30;38.30;;;;;;4997850;28;20058;-57
2023/12/27 01:31:35;;;;;;;5.35;1.63;;;22.40;38.30;;;;;;4998749;28;20057;-57
2023/12/27 01:34:02;;;;;;;3.67;1.67;;;22.40;38.20;;;;;;5003026;28;20050;-57
2023/12/27 01:36:29;;;;;;;4.97;1.83;;;22.50;38.20;;;;;;5005947;28;20057;-57
2023/12/27 01:38:56;;;;;;;4.72;1.70;;;22.50;38.20;;;;;;5002047;28;20058;-57
2023/12/27 01:41:25;;;;;;;3.10;1.77;;;22.50;38.10;;;;;;5003074;28;20132;-55
2023/12/27 01:43:52;;;;;;;3.58;1.70;;;22.50;38.00;;;;;;5000982;28;20073;-53
2023/12/27 01:46:19;;;;;;;4.18;1.73;;;22.50;38.00;;;;;;5006064;28;20072;-50
2023/12/27 01:48:47;;;;;;;6.40;2.17;;;22.50;37.90;;;;;;5006781;28;20507;-55
2023/12/27 01:51:14;;;;;;;7.15;2.20;;;22.50;37.90;;;;;;4999083;28;20062;-55
2023/12/27 01:53:41;;;;;;;3.45;1.52;;;22.60;37.90;;;;;;5001463;28;20058;-53
2023/12/27 01:56:09;;;;;;;5.13;1.77;;;22.60;37.90;;;;;;5000416;28;20057;-54
2023/12/27 01:58:38;;;;;;;3.95;2.00;;;22.50;37.80;;;;;;5001121;28;20498;-53
2023/12/27 02:01:05;;;;;;;4.72;2.25;;;22.60;37.80;;;;;;5003511;28;20662;-56
2023/12/27 02:03:32;;;;;;;5.07;1.75;;;22.50;37.80;;;;;;5007830;28;20050;-56
2023/12/27 02:06:00;;;;;;;3.78;1.45;;;22.50;37.70;;;;;;5001552;28;20050;-54
2023/12/27 02:08:29;;;;;;;4.82;1.80;;;22.50;37.70;;;;;;5001384;28;20064;-56
2023/12/27 02:10:56;;;;;;;3.90;1.67;;;22.50;37.70;;;;;;5004688;28;20057;-56
2023/12/27 02:13:23;;;;;;;6.05;2.17;;;22.50;37.70;;;;;;5004889;28;20054;-55
2023/12/27 02:15:52;;;;;;;4.78;1.60;;;22.50;37.70;;;;;;5003825;28;20046;-55
2023/12/27 02:18:21;;;;;;;3.45;1.67;;;22.40;37.70;;;;;;5000552;28;20060;-56
2023/12/27 02:20:48;;;;;;;4.35;2.10;;;22.40;37.70;;;;;;5004230;28;20068;-53
2023/12/27 02:23:19;;;;;;;3.72;1.80;;;22.40;37.70;;;;;;5000861;28;20049;-55
2023/12/27 02:25:49;;;;;;;5.60;1.85;;;22.40;37.60;;;;;;5002414;28;20500;-56
2023/12/27 02:28:17;;;;;;;3.58;1.80;;;22.40;37.70;;;;;;5002221;28;20494;-56
2023/12/27 02:30:44;;;;;;;7.13;1.90;;;22.30;37.60;;;;;;5001602;28;20046;-57
2023/12/27 02:33:11;;;;;;;4.97;2.08;;;22.30;37.60;;;;;;4999505;28;20058;-54
2023/12/27 02:35:38;;;;;;;8.75;1.90;;;22.30;37.60;;;;;;5000662;28;20054;-54
2023/12/27 02:38:05;;;;;;;6.45;2.17;;;22.30;37.50;;;;;;5005149;28;20049;-53
2023/12/27 02:40:32;;;;;;;5.28;1.90;;;22.20;37.50;;;;;;5004619;28;20057;-52
2023/12/27 02:43:01;;;;;;;5.57;2.08;;;22.20;37.50;;;;;;4996386;28;20061;-55
2023/12/27 02:45:28;;;;;;;6.32;2.05;;;22.20;37.50;;;;;;5001193;28;20057;-52
2023/12/27 02:47:55;;;;;;;3.25;1.75;;;22.20;37.60;;;;;;5003431;28;20062;-56
2023/12/27 02:50:22;;;;;;;5.68;1.80;;;22.20;37.60;;;;;;5001695;28;20456;-52
2023/12/27 02:52:50;;;;;;;4.85;1.83;;;22.20;37.70;;;;;;5005545;28;20057;-55
2023/12/27 02:55:17;;;;;;;5.05;1.80;;;22.20;37.80;;;;;;5006436;28;20057;-56
2023/12/27 02:57:44;;;;;;;5.22;1.90;;;22.20;37.80;;;;;;5008371;28;20050;-56
2023/12/27 03:00:14;;;;;;;5.85;1.92;;;22.30;37.90;;;;;;5005122;28;20344;-56
2023/12/27 03:02:41;;;;;;;4.40;1.90;;;22.30;37.90;;;;;;5005928;28;20050;-54
2023/12/27 03:05:08;;;;;;;5.70;2.15;;;22.40;37.90;;;;;;5002600;28;20049;-56
2023/12/27 03:07:35;;;;;;;7.25;2.10;;;22.40;37.90;;;;;;5010749;28;20053;-56
2023/12/27 03:10:03;;;;;;;4.80;2.22;;;22.40;37.80;;;;;;5002466;28;20064;-56
2023/12/27 03:12:30;;;;;;;4.10;1.45;;;22.50;37.80;;;;;;5006309;28;20054;-56
2023/12/27 03:14:58;;;;;;;6.07;2.08;;;22.50;37.70;;;;;;5005842;28;20056;-56
2023/12/27 03:17:26;;;;;;;4.85;2.05;;;22.50;37.60;;;;;;5002933;28;20415;-54
2023/12/27 03:19:53;;;;;;;4.82;2.28;;;22.50;37.60;;;;;;5005257;28;20505;-55
2023/12/27 03:22:20;;;;;;;4.63;2.03;;;22.50;37.50;;;;;;5005464;28;20053;-56
2023/12/27 03:24:48;;;;;;;5.30;2.10;;;22.50;37.50;;;;;;5005405;28;20053;-56
2023/12/27 03:27:15;;;;;;;4.07;1.65;;;22.50;37.50;;;;;;5007767;28;20062;-56
2023/12/27 03:29:42;;;;;;;4.03;1.85;;;22.50;37.40;;;;;;5007243;28;20046;-56
2023/12/27 03:32:09;;;;;;;4.57;1.92;;;22.50;37.40;;;;;;5004192;28;20054;-55
2023/12/27 03:34:38;;;;;;;6.57;2.00;;;22.50;37.30;;;;;;5007415;28;20049;-55
2023/12/27 03:37:06;;;;;;;4.50;1.83;;;22.50;37.30;;;;;;4998256;28;20054;-53
2023/12/27 03:39:33;;;;;;;6.60;1.90;;;22.50;37.20;;;;;;4999245;28;20047;-55
2023/12/27 03:42:00;;;;;;;5.20;2.30;;;22.50;37.20;;;;;;4998381;28;20085;-54
2023/12/27 03:44:27;;;;;;;5.97;2.10;;;22.50;37.20;;;;;;5002846;28;20053;-55
2023/12/27 03:46:54;;;;;;;3.67;1.80;;;22.40;37.10;;;;;;5001607;28;20060;-55
2023/12/27 03:49:21;;;;;;;5.15;1.80;;;22.50;37.20;;;;;;5008266;28;20060;-56
2023/12/27 03:51:50;;;;;;;5.85;2.20;;;22.40;37.10;;;;;;5004316;28;20065;-54
2023/12/27 03:54:17;;;;;;;4.60;2.10;;;22.40;37.10;;;;;;5004790;28;20057;-55
2023/12/27 03:56:45;;;;;;;5.70;2.25;;;22.40;37.10;;;;;;5001507;28;20328;-56
2023/12/27 03:59:12;;;;;;;5.25;2.10;;;22.40;37.10;;;;;;5001583;28;20068;-56
2023/12/27 04:01:40;;;;;;;4.80;1.98;;;22.30;37.00;;;;;;5004584;28;20047;-56
2023/12/27 04:04:07;;;;;;;5.95;2.22;;;22.30;37.10;;;;;;5004232;28;20062;-54
2023/12/27 04:06:34;;;;;;;6.72;2.35;;;22.30;37.10;;;;;;5008227;28;20507;-56
2023/12/27 04:09:03;;;;;;;6.45;2.17;;;22.30;37.10;;;;;;5004475;28;20054;-54
2023/12/27 04:11:30;;;;;;;5.68;2.00;;;22.30;37.10;;;;;;4997442;28;20523;-54
2023/12/27 04:13:57;;;;;;;5.28;2.00;;;22.30;37.10;;;;;;5004992;28;20069;-55
2023/12/27 04:16:24;;;;;;;5.95;2.45;;;22.20;37.10;;;;;;5006802;28;20752;-55
2023/12/27 04:18:52;;;;;;;6.65;2.45;;;22.20;37.20;;;;;;5003260;28;20516;-55
2023/12/27 04:21:20;;;;;;;5.95;2.17;;;22.20;37.20;;;;;;5006077;28;20057;-56
2023/12/27 04:23:47;;;;;;;6.00;2.53;;;22.10;37.30;;;;;;5005001;28;20053;-56
2023/12/27 04:26:18;;;;;;;5.38;2.35;;;22.20;37.40;;;;;;4999115;28;20060;-56
2023/12/27 04:28:45;;;;;;;4.65;1.85;;;22.20;37.50;;;;;;5000851;28;20061;-56
2023/12/27 04:31:12;;;;;;;8.60;2.13;;;22.20;37.50;;;;;;5006409;28;20519;-54
2023/12/27 04:33:39;;;;;;;4.85;2.00;;;22.20;37.60;;;;;;5000746;28;20495;-53
2023/12/27 04:36:07;;;;;;;6.97;2.85;;;22.30;37.60;;;;;;5004690;28;20054;-56
2023/12/27 04:38:34;;;;;;;5.50;2.17;;;22.30;37.60;;;;;;5002067;28;20046;-56
2023/12/27 04:41:07;;;;;;;4.47;2.20;;;22.30;37.60;;;;;;4997776;28;20403;-56
2023/12/27 04:43:36;;;;;;;6.82;2.45;;;22.40;37.60;;;;;;5008453;28;20057;-56
2023/12/27 04:46:03;;;;;;;5.82;1.95;;;22.40;37.60;;;;;;4998953;28;20053;-56
2023/12/27 04:48:30;;;;;;;4.43;1.75;;;22.40;37.50;;;;;;5001270;28;20057;-54
2023/12/27 04:50:57;;;;;;;5.18;2.10;;;22.50;37.50;;;;;;5006877;28;20508;-54
2023/12/27 04:53:24;;;;;;;6.47;1.77;;;22.50;37.50;;;;;;4994725;28;20061;-53
2023/12/27 04:55:52;;;;;;;6.35;2.25;;;22.50;37.50;;;;;;5007224;28;20057;-53
2023/12/27 04:58:19;;;;;;;5.65;1.95;;;22.50;37.40;;;;;;4997924;28;20169;-55
2023/12/27 05:00:47;;;;;;;6.82;2.13;;;22.50;37.40;;;;;;4998934;28;20058;-55
2023/12/27 05:03:14;;;;;;;5.65;2.30;;;22.50;37.30;;;;;;4999528;28;20058;-55
2023/12/27 05:05:42;;;;;;;8.52;2.20;;;22.50;37.30;;;;;;5003485;28;20046;-56
2023/12/27 05:08:09;;;;;;;5.15;2.30;;;22.50;37.30;;;;;;5002528;28;20420;-56
2023/12/27 05:10:36;;;;;;;4.75;1.90;;;22.50;37.30;;;;;;5006584;28;20595;-55
2023/12/27 05:13:04;;;;;;;8.38;3.08;;;22.50;37.30;;;;;;5000091;28;20439;-52
2023/12/27 05:15:31;;;;;;;5.43;2.17;;;22.50;37.20;;;;;;4996773;28;20054;-56
2023/12/27 05:17:59;;;;;;;4.68;1.80;;;22.40;37.10;;;;;;5001610;28;20519;-54
2023/12/27 05:20:26;;;;;;;4.55;1.83;;;22.40;37.10;;;;;;5000781;28;20233;-56
2023/12/27 05:22:53;;;;;;;3.88;1.70;;;22.40;37.20;;;;;;4998964;28;20050;-53
2023/12/27 05:25:21;;;;;;;6.88;2.15;;;22.40;37.20;;;;;;4999244;28;20056;-54
2023/12/27 05:27:48;;;;;;;5.35;2.10;;;22.40;37.20;;;;;;4995396;28;20050;-55
2023/12/27 05:30:16;;;;;;;5.65;2.08;;;22.40;37.20;;;;;;4996814;28;20058;-55
2023/12/27 05:32:43;;;;;;;5.07;1.88;;;22.30;37.10;;;;;;4999476;28;20116;-55
2023/12/27 05:35:11;;;;;;;5.10;2.30;;;22.30;37.10;;;;;;4996061;28;20066;-56
2023/12/27 05:37:39;;;;;;;7.65;1.92;;;22.30;37.20;;;;;;5003670;28;20064;-50
2023/12/27 05:40:08;;;;;;;5.10;2.28;;;22.30;37.30;;;;;;5003424;28;20212;-56
2023/12/27 05:42:35;;;;;;;10.73;2.30;;;22.30;37.30;;;;;;5002272;28;20061;-54
2023/12/27 05:45:03;;;;;;;5.72;1.90;;;22.30;37.50;;;;;;4998676;28;20499;-57
2023/12/27 05:47:30;;;;;;;13.57;2.30;;;22.20;37.50;;;;;;4993832;28;20495;-56
2023/12/27 05:49:57;;;;;;;11.55;2.35;;;22.20;37.70;;;;;;4998352;28;20062;-58
2023/12/27 05:52:26;;;;;;;12.25;2.47;;;22.20;37.50;;;;;;4997418;28;20058;-55
2023/12/27 05:54:53;;;;;;;6.72;1.95;;;22.30;37.60;;;;;;4990151;28;20046;-57
2023/12/27 05:57:22;;;;;;;7.82;1.95;;;22.30;37.60;;;;;;4994446;28;20049;-58
2023/12/27 05:59:50;;;;;;;6.75;2.15;;;22.30;37.60;;;;;;5003394;28;20049;-58
2023/12/27 06:02:17;;;;;;;3.47;1.90;;;22.30;37.70;;;;;;5006871;28;20538;-57
2023/12/27 06:04:45;;;;;;;10.20;2.47;;;22.40;37.70;;;;;;5001462;28;20061;-58
2023/12/27 06:07:13;;;;;;;5.97;1.85;;;22.40;37.60;;;;;;4997757;28;20050;-59
2023/12/27 06:09:42;;;;;;;6.82;1.88;;;22.50;37.70;;;;;;4978403;28;20059;-59
2023/12/27 06:12:09;;;;;;;6.65;2.40;;;22.50;37.60;;;;;;4981280;28;20061;-58
2023/12/27 06:14:38;;;;;;;4.97;1.75;;;22.60;37.60;;;;;;4981196;28;20042;-58
2023/12/27 06:17:05;;;;;;;4.90;1.70;;;22.60;37.50;;;;;;4983637;28;20493;-59
2023/12/27 06:19:33;;;;;;;5.13;2.00;;;22.60;37.50;;;;;;4979829;28;20050;-59
2023/12/27 06:22:00;;;;;;;5.30;1.77;;;22.60;37.50;;;;;;4983287;28;20489;-59
2023/12/27 06:24:27;;;;;;;6.55;2.05;;;22.60;37.60;;;;;;4986085;28;20054;-59
2023/12/27 06:26:55;;;;;;;6.30;1.70;;;22.70;37.70;;;;;;4994511;28;20400;-59
2023/12/27 06:29:23;;;;;;;7.00;1.90;;;22.70;37.70;;;;;;4987892;28;20488;-59
2023/12/27 06:31:50;;;;;;;8.05;2.15;;;22.70;37.70;;;;;;4989901;28;20046;-57
2023/12/27 06:34:18;;;;;;;6.00;1.40;;;22.80;37.70;;;;;;4989442;28;20497;-59
2023/12/27 06:36:47;;;;;;;5.18;1.60;;;22.80;37.70;;;;;;4989426;28;20400;-58
2023/12/27 06:39:15;;;;;;;9.80;1.88;;;22.90;37.70;;;;;;4984050;28;20057;-58
2023/12/27 06:41:42;;;;;;;55.25;27.50;;;22.90;37.50;;;;;;4987956;28;20058;-59
2023/12/27 06:44:10;;;;;;;158.95;78.25;;;22.90;37.40;;;;;;4986716;28;20062;-59
2023/12/27 06:46:37;;;;;;;133.60;72.40;;;22.90;37.20;;;;;;4990591;28;20060;-59
2023/12/27 06:49:05;;;;;;;83.20;46.10;;;23.00;37.10;;;;;;4990853;28;20054;-58
2023/12/27 06:51:32;;;;;;;66.03;35.20;;;23.00;37.00;;;;;;4991173;28;20050;-59
2023/12/27 06:53:59;;;;;;;52.97;30.13;;;23.00;37.10;;;;;;4978243;28;20050;-60
2023/12/27 06:56:26;;;;;;;55.78;26.38;;;22.90;37.00;;;;;;4986811;28;20404;-59
2023/12/27 06:58:53;;;;;;;47.05;25.05;;;23.00;37.10;;;;;;4985071;28;20504;-59
2023/12/27 07:01:22;;;;;;;45.15;23.30;;;23.00;37.20;;;;;;4981206;28;20531;-55
2023/12/27 07:03:49;;;;;;;39.47;20.17;;;22.90;37.20;;;;;;4985140;28;20516;-55
2023/12/27 07:06:17;;;;;;;35.15;19.08;;;23.00;37.20;;;;;;4984801;28;20054;-53
2023/12/27 07:08:44;;;;;;;35.90;17.25;;;22.90;37.10;;;;;;4981277;28;20058;-57
2023/12/27 07:11:17;;;;;;;35.35;16.05;;;22.90;37.20;;;;;;4984868;28;20053;-54
2023/12/27 07:13:46;;;;;;;32.10;14.70;;;22.90;37.20;;;;;;4981417;28;20058;-55
2023/12/27 07:16:13;;;;;;;27.60;14.65;;;22.90;37.20;;;;;;4983639;28;20054;-55
2023/12/27 07:18:42;;;;;;;33.50;15.63;;;22.90;37.20;;;;;;4983393;28;20384;-55
2023/12/27 07:21:09;;;;;;;28.20;14.32;;;22.90;37.10;;;;;;4972488;28;20063;-55
2023/12/27 07:23:36;;;;;;;30.88;13.43;;;22.90;37.20;;;;;;4983579;28;20523;-54
2023/12/27 07:26:04;;;;;;;26.60;13.02;;;22.90;37.10;;;;;;4985964;28;20051;-53
2023/12/27 07:28:31;;;;;;;28.60;12.95;;;22.80;37.00;;;;;;4979036;28;20050;-54
2023/12/27 07:30:59;;;;;;;25.85;12.55;;;22.80;37.00;;;;;;4983480;28;20050;-57
2023/12/27 07:33:26;;;;;;;46.10;21.13;;;22.80;37.10;;;;;;4984242;28;20062;-57
2023/12/27 07:35:54;;;;;;;28.30;14.32;;;22.70;37.30;;;;;;4981186;28;20404;-58
2023/12/27 07:38:23;;;;;;;23.45;11.73;;;22.70;37.30;;;;;;4984828;28;20504;-57
2023/12/27 07:40:50;;;;;;;23.70;11.10;;;22.70;37.30;;;;;;4982393;28;20058;-57
2023/12/27 07:43:17;;;;;;;20.60;10.52;;;22.70;37.30;;;;;;4977950;28;20640;-56
2023/12/27 07:45:44;;;;;;;20.73;9.82;;;22.60;37.30;;;;;;4981057;28;20069;-58
2023/12/27 07:48:11;;;;;;;32.05;10.93;;;22.60;37.30;;;;;;4983890;28;20061;-58
2023/12/27 07:50:39;;;;;;;26.42;8.77;;;22.60;37.40;;;;;;4986057;28;20065;-57
2023/12/27 07:53:09;;;;;;;21.67;9.23;;;22.60;37.40;;;;;;4984443;28;20058;-57
2023/12/27 07:55:36;;;;;;;22.52;8.70;;;22.50;37.40;;;;;;4977513;28;20462;-57
2023/12/27 07:58:04;;;;;;;18.98;8.90;;;22.50;37.40;;;;;;4980513;28;20619;-58
2023/12/27 08:00:32;;;;;;;19.23;8.77;;;22.50;37.40;;;;;;4985614;28;20055;-58
2023/12/27 08:06:21;;;;;;;25.58;7.95;;;22.40;37.40;;;;;;4979475;28;20037;-56
2023/12/27 08:08:49;;;;;;;16.70;7.45;;;22.40;37.50;;;;;;4979087;28;20058;-57
2023/12/27 08:11:17;;;;;;;7.95;4.22;;;22.40;37.50;;;;;;4977839;28;20058;-55
2023/12/27 08:13:45;;;;;;;10.43;3.25;;;22.40;37.00;;;;;;4983074;28;20055;-56
2023/12/27 08:16:12;;;;;;;4.45;2.40;;;22.30;36.50;;;;;;4981154;28;20061;-57
2023/12/27 08:18:39;;;;;;;7.72;2.58;;;22.30;36.40;;;;;;4978643;28;20057;-57
2023/12/27 08:21:06;;;;;;;10.45;2.80;;;22.20;36.60;;;;;;4978426;28;20046;-57
2023/12/27 08:23:35;;;;;;;14.13;3.05;;;22.10;36.90;;;;;;4983685;28;20069;-58
2023/12/27 08:26:06;;;;;;;11.57;3.22;;;22.10;37.20;;;;;;4983065;28;20057;-57
2023/12/27 08:28:34;;;;;;;8.82;3.15;;;22.10;37.40;;;;;;4983279;28;20481;-57
2023/12/27 08:31:01;;;;;;;8.90;2.95;;;22.10;37.50;;;;;;4985214;28;20051;-57
2023/12/27 08:33:30;;;;;;;9.75;3.22;;;22.20;37.60;;;;;;4977594;28;20058;-57
2023/12/27 08:35:59;;;;;;;7.22;3.25;;;22.20;37.60;;;;;;4983634;28;20055;-57
2023/12/27 08:38:26;;;;;;;8.23;3.00;;;22.20;37.70;;;;;;4982785;28;20426;-57
2023/12/27 08:40:53;;;;;;;18.10;3.28;;;22.20;37.70;;;;;;4983486;28;20058;-58
2023/12/27 08:43:27;;;;;;;8.15;2.78;;;22.30;37.80;;;;;;4981883;28;20516;-58
2023/12/27 08:45:54;;;;;;;10.00;2.67;;;22.30;37.80;;;;;;4984128;28;20046;-58
2023/12/27 08:48:22;;;;;;;8.02;3.35;;;22.30;37.80;;;;;;4980597;28;20061;-58
2023/12/27 08:50:49;;;;;;;6.13;2.35;;;22.40;37.90;;;;;;4983532;28;20059;-57
2023/12/27 08:53:16;;;;;;;10.52;2.70;;;22.40;37.90;;;;;;4978757;28;20047;-56
2023/12/27 08:55:43;;;;;;;7.18;3.20;;;22.50;38.00;;;;;;4983784;28;20047;-56
2023/12/27 08:58:12;;;;;;;8.00;3.25;;;22.50;37.90;;;;;;4979746;28;20054;-56
2023/12/27 09:00:41;;;;;;;21.42;9.18;;;22.50;37.90;;;;;;4983808;28;20054;-57
2023/12/27 09:03:08;;;;;;;137.07;72.03;;;22.60;38.00;;;;;;4977795;28;20050;-56
2023/12/27 09:05:35;;;;;;;97.15;50.90;;;22.60;37.90;;;;;;4985351;28;20047;-57
2023/12/27 09:08:02;;;;;;;72.18;33.42;;;22.70;37.90;;;;;;4984370;28;20058;-57
2023/12/27 09:10:30;;;;;;;46.33;22.42;;;22.70;37.90;;;;;;4989239;28;20046;-57
2023/12/27 09:12:57;;;;;;;37.40;13.65;;;22.70;37.80;;;;;;4985484;28;20408;-57
2023/12/27 09:15:24;;;;;;;26.70;13.27;;;22.70;37.60;;;;;;4984442;28;20061;-58
2023/12/27 09:17:53;;;;;;;23.00;11.23;;;22.70;37.60;;;;;;4983277;28;20050;-59
2023/12/27 09:20:20;;;;;;;17.50;7.80;;;22.70;37.60;;;;;;4979745;28;20072;-58
2023/12/27 09:22:47;;;;;;;36.25;8.68;;;22.70;37.40;;;;;;4981326;28;20273;-60
2023/12/27 09:25:14;;;;;;;36.65;9.05;;;22.70;37.50;;;;;;4974096;28;20055;-58
2023/12/27 09:27:41;;;;;;;29.30;9.55;;;22.70;37.50;;;;;;4982744;28;20412;-58
2023/12/27 09:30:09;;;;;;;28.95;8.55;;;22.70;37.60;;;;;;4980640;28;20054;-58
2023/12/27 09:32:37;;;;;;;28.90;11.52;;;22.60;37.60;;;;;;4974827;28;20062;-58
2023/12/27 09:35:06;;;;;;;132.52;68.13;;;22.60;37.70;;;;;;4985477;28;20061;-59
2023/12/27 09:37:35;;;;;;;81.75;45.05;;;22.60;37.60;;;;;;4988006;28;20054;-59
2023/12/27 09:40:03;;;;;;;34.00;20.23;;;22.60;37.50;;;;;;4985795;28;20066;-58
2023/12/27 09:42:33;;;;;;;18.50;9.82;;;22.60;37.30;;;;;;4989847;28;20050;-57
2023/12/27 09:45:03;;;;;;;11.65;6.32;;;22.50;37.00;;;;;;4985381;28;20046;-57
2023/12/27 09:47:33;;;;;;;15.55;7.28;;;22.50;36.90;;;;;;4979650;28;20053;-58
2023/12/27 09:50:02;;;;;;;18.42;9.15;;;22.50;37.00;;;;;;4979038;28;20054;-58
2023/12/27 09:52:33;;;;;;;21.65;10.13;;;22.40;37.20;;;;;;4972013;28;20413;-61
2023/12/27 09:55:01;;;;;;;27.63;10.70;;;22.30;37.40;;;;;;4984650;28;20058;-65
2023/12/27 09:57:30;;;;;;;22.63;9.98;;;22.30;37.50;;;;;;4990622;28;20062;-64
2023/12/27 10:00:00;;;;;;;23.17;10.18;;;22.30;37.60;;;;;;4990699;28;20050;-63
2023/12/27 10:02:28;;;;;;;20.88;9.82;;;22.30;37.70;;;;;;4994612;28;20047;-64
2023/12/27 10:05:05;;;;;;;14.73;8.27;;;22.30;37.80;;;;;;4997716;28;20054;-62
2023/12/27 10:07:38;;;;;;;17.23;8.02;;;22.20;37.80;;;;;;4988952;28;20418;-63
2023/12/27 10:10:07;;;;;;;17.13;6.85;;;22.20;37.80;;;;;;4990810;28;20054;-62
2023/12/27 10:12:35;;;;;;;13.02;7.35;;;22.30;37.90;;;;;;4987075;28;20070;-62
2023/12/27 10:15:02;;;;;;;13.60;6.85;;;22.30;38.00;;;;;;5000522;28;20577;-60
2023/12/27 10:17:30;;;;;;;16.33;6.88;;;22.30;38.10;;;;;;4999423;28;20054;-59
2023/12/27 10:19:58;;;;;;;14.70;6.28;;;22.30;38.20;;;;;;4993480;28;20061;-59
2023/12/27 10:22:25;;;;;;;13.02;6.07;;;22.40;38.30;;;;;;4986995;28;20080;-59
2023/12/27 10:24:54;;;;;;;9.23;5.20;;;22.40;38.30;;;;;;4997337;28;20050;-59
2023/12/27 10:27:21;;;;;;;12.18;5.72;;;22.50;38.80;;;;;;4989679;28;20046;-60
2023/12/27 10:29:49;;;;;;;9.35;4.82;;;22.50;38.20;;;;;;4985782;28;20047;-59
2023/12/27 10:32:17;;;;;;;12.13;5.07;;;22.60;38.20;;;;;;4986766;28;20058;-60
2023/12/27 10:34:44;;;;;;;8.50;4.50;;;22.60;38.20;;;;;;4993872;28;20073;-60
2023/12/27 10:37:13;;;;;;;10.68;4.28;;;22.70;38.20;;;;;;4992979;28;20416;-60
2023/12/27 10:39:45;;;;;;;12.68;4.32;;;22.70;38.10;;;;;;4982775;28;20480;-60
2023/12/27 10:42:16;;;;;;;9.50;4.22;;;22.70;38.10;;;;;;4981832;28;20524;-60
2023/12/27 10:44:45;;;;;;;11.10;4.45;;;22.70;38.10;;;;;;4979430;28;20053;-59
2023/12/27 10:47:17;;;;;;;8.70;4.05;;;22.70;38.10;;;;;;4980392;28;20516;-61
2023/12/27 10:49:47;;;;;;;8.23;3.67;;;22.80;38.10;;;;;;4984813;28;20059;-62
2023/12/27 10:52:16;;;;;;;74.40;39.10;;;22.80;38.70;;;;;;4980043;28;20063;-60
2023/12/27 10:54:45;;;;;;;184.95;92.55;;;22.70;38.20;;;;;;4970051;28;20524;-61
2023/12/27 10:57:18;;;;;;;119.00;64.57;;;22.80;38.20;;;;;;4984511;28;20061;-60
2023/12/27 10:59:47;;;;;;;69.20;38.20;;;22.80;38.10;;;;;;4990518;28;20053;-59
2023/12/27 11:02:14;;;;;;;48.30;26.90;;;22.80;38.10;;;;;;4985503;28;20054;-59
2023/12/27 11:04:45;;;;;;;44.40;23.08;;;22.80;38.10;;;;;;4991936;28;20385;-59
2023/12/27 11:07:13;;;;;;;40.95;22.52;;;22.70;38.10;;;;;;4989509;28;20061;-60
2023/12/27 11:09:42;;;;;;;40.75;22.13;;;22.70;38.00;;;;;;4989805;28;20061;-57
2023/12/27 11:12:10;;;;;;;39.90;21.92;;;22.70;38.10;;;;;;4983303;28;20069;-62
2023/12/27 11:14:42;;;;;;;38.78;20.10;;;22.70;38.20;;;;;;4986067;28;20050;-61
2023/12/27 11:17:10;;;;;;;40.40;20.65;;;22.70;38.30;;;;;;4986429;28;20058;-59
2023/12/27 11:19:38;;;;;;;37.65;20.33;;;22.70;38.30;;;;;;4980422;28;20054;-57
2023/12/27 11:22:05;;;;;;;39.47;19.92;;;22.70;38.50;;;;;;4982571;28;20073;-60
2023/12/27 11:24:36;;;;;;;38.60;21.17;;;22.70;38.40;;;;;;4978878;28;20409;-61
2023/12/27 11:27:04;;;;;;;44.33;16.27;;;22.70;38.40;;;;;;4984550;28;20501;-61
2023/12/27 11:29:32;;;;;;;35.25;16.60;;;22.60;38.40;;;;;;4985930;28;20054;-64
2023/12/27 11:32:01;;;;;;;42.58;14.32;;;22.60;38.40;;;;;;4980241;28;20059;-64
2023/12/27 11:34:28;;;;;;;41.92;15.02;;;22.60;38.90;;;;;;4980705;28;20069;-63
2023/12/27 11:36:55;;;;;;;24.02;10.45;;;22.60;38.50;;;;;;4980074;28;20478;-63
2023/12/27 11:39:26;;;;;;;26.25;9.52;;;22.60;38.40;;;;;;4986089;28;20073;-62
2023/12/27 11:41:54;;;;;;;22.80;11.90;;;22.60;38.30;;;;;;4976736;28;20062;-60
2023/12/27 11:44:21;;;;;;;21.77;10.50;;;22.60;38.40;;;;;;4985769;28;20511;-61
2023/12/27 11:46:48;;;;;;;37.92;9.85;;;22.50;38.40;;;;;;4981503;28;20420;-57
2023/12/27 11:49:21;;;;;;;15.57;8.02;;;22.50;38.40;;;;;;4984435;28;20054;-61
2023/12/27 11:51:48;;;;;;;19.48;7.60;;;22.50;38.40;;;;;;4982568;28;20054;-59
2023/12/27 11:54:23;;;;;;;22.65;8.48;;;22.50;38.40;;;;;;4982599;28;20728;-61
2023/12/27 11:56:52;;;;;;;17.73;8.82;;;22.50;38.50;;;;;;4974407;28;20093;-60
2023/12/27 11:59:21;;;;;;;20.20;8.95;;;22.50;38.50;;;;;;4981876;28;20524;-58
2023/12/27 12:01:52;;;;;;;16.70;8.00;;;22.50;38.60;;;;;;4982728;28;20047;-58
2023/12/27 12:04:49;;;;;;;14.68;7.43;;;22.50;38.70;;;;;;4974198;28;20477;-60
2023/12/27 12:07:39;;;;;;;13.00;6.65;;;22.50;38.80;;;;;;4979613;28;20944;-60
2023/12/27 12:10:21;;;;;;;16.75;6.68;;;22.60;38.80;;;;;;4977367;28;20054;-53
2023/12/27 12:12:49;;;;;;;12.75;6.10;;;22.60;38.80;;;;;;4981141;28;20511;-57
2023/12/27 12:15:17;;;;;;;12.27;6.07;;;22.70;38.70;;;;;;4970638;28;20062;-58
2023/12/27 12:17:45;;;;;;;13.82;5.95;;;22.70;38.70;;;;;;4979201;28;20061;-58
2023/12/27 12:20:14;;;;;;;8.90;3.42;;;22.70;38.80;;;;;;4978588;28;20054;-58
2023/12/27 12:22:44;;;;;;;15.15;3.70;;;22.70;38.30;;;;;;4975171;28;20054;-57
2023/12/27 12:25:12;;;;;;;9.02;3.60;;;22.70;38.30;;;;;;4980747;28;20717;-58
2023/12/27 12:27:43;;;;;;;25.02;4.68;;;22.70;38.80;;;;;;4982621;28;20059;-58
2023/12/27 12:30:12;;;;;;;10.27;4.40;;;22.70;39.10;;;;;;4982462;28;20051;-59
2023/12/27 12:32:40;;;;;;;17.48;4.80;;;22.70;39.40;;;;;;4983479;28;20390;-59
2023/12/27 12:35:09;;;;;;;14.05;4.47;;;22.70;39.80;;;;;;4984069;28;20406;-60
2023/12/27 12:37:38;;;;;;;14.10;4.43;;;22.70;40.00;;;;;;4981379;28;20050;-58
2023/12/27 12:40:09;;;;;;;11.18;4.05;;;22.70;40.20;;;;;;4978157;28;20404;-59
2023/12/27 12:42:36;;;;;;;11.10;4.07;;;22.70;40.30;;;;;;4980249;28;20693;-60
2023/12/27 12:45:04;;;;;;;11.07;4.80;;;22.80;40.40;;;;;;4984240;28;20069;-59
2023/12/27 12:47:33;;;;;;;10.13;4.10;;;22.70;40.60;;;;;;4980360;28;20489;-58
2023/12/27 12:50:01;;;;;;;12.90;3.95;;;22.70;40.80;;;;;;4984221;28;20061;-58
2023/12/27 12:52:28;;;;;;;9.93;4.18;;;22.70;40.80;;;;;;4981046;28;20050;-60
2023/12/27 12:55:01;;;;;;;12.10;4.32;;;22.70;40.80;;;;;;4983857;28;20046;-58